sensor_id;sensor_type;location;lat;lon;timestamp;P1;durP1;ratioP1;P2;durP2;ratioP2
68250;SDS011;55066;51.560;4.642;2022-07-29T00:00:19;6.90;;;2.40;;
68250;SDS011;55066;51.560;4.642;2022-07-29T00:02:44;4.07;;;1.95;;
68250;SDS011;55066;51.560;4.642;2022-07-29T00:05:10;8.07;;;2.30;;
68250;SDS011;55066;51.560;4.642;2022-07-29T00:07:38;7.18;;;2.05;;
68250;SDS011;55066;51.560;4.642;2022-07-29T00:10:04;4.00;;;2.07;;
68250;SDS011;55066;51.560;4.642;2022-07-29T00:12:29;5.55;;;1.85;;
68250;SDS011;55066;51.560;4.642;2022-07-29T00:14:55;3.47;;;1.93;;
68250;SDS011;55066;51.560;4.642;2022-07-29T00:17:21;5.10;;;1.90;;
68250;SDS011;55066;51.560;4.642;2022-07-29T00:19:48;4.95;;;1.98;;
68250;SDS011;55066;51.560;4.642;2022-07-29T00:22:13;2.97;;;1.60;;
68250;SDS011;55066;51.560;4.642;2022-07-29T00:24:39;4.57;;;2.00;;
68250;SDS011;55066;51.560;4.642;2022-07-29T00:27:04;4.53;;;2.00;;
68250;SDS011;55066;51.560;4.642;2022-07-29T00:29:29;4.60;;;1.83;;
68250;SDS011;55066;51.560;4.642;2022-07-29T00:31:55;6.23;;;2.07;;
68250;SDS011;55066;51.560;4.642;2022-07-29T00:34:20;3.42;;;1.67;;
68250;SDS011;55066;51.560;4.642;2022-07-29T00:37:04;4.17;;;1.70;;
68250;SDS011;55066;51.560;4.642;2022-07-29T00:39:29;5.63;;;1.90;;
68250;SDS011;55066;51.560;4.642;2022-07-29T00:41:55;6.97;;;1.80;;
68250;SDS011;55066;51.560;4.642;2022-07-29T00:44:20;4.70;;;2.03;;
68250;SDS011;55066;51.560;4.642;2022-07-29T00:46:46;6.00;;;1.77;;
68250;SDS011;55066;51.560;4.642;2022-07-29T00:49:11;6.53;;;2.13;;
68250;SDS011;55066;51.560;4.642;2022-07-29T00:51:38;5.05;;;1.80;;
68250;SDS011;55066;51.560;4.642;2022-07-29T00:54:04;5.15;;;1.80;;
68250;SDS011;55066;51.560;4.642;2022-07-29T00:56:30;4.63;;;1.80;;
68250;SDS011;55066;51.560;4.642;2022-07-29T00:58:57;5.07;;;1.92;;
68250;SDS011;55066;51.560;4.642;2022-07-29T01:01:23;3.70;;;1.80;;
68250;SDS011;55066;51.560;4.642;2022-07-29T01:03:48;6.10;;;1.70;;
68250;SDS011;55066;51.560;4.642;2022-07-29T01:06:15;4.37;;;2.10;;
68250;SDS011;55066;51.560;4.642;2022-07-29T01:08:41;4.50;;;1.80;;
68250;SDS011;55066;51.560;4.642;2022-07-29T01:11:07;6.23;;;1.70;;
68250;SDS011;55066;51.560;4.642;2022-07-29T01:13:33;3.85;;;1.70;;
68250;SDS011;55066;51.560;4.642;2022-07-29T01:16:02;3.80;;;1.88;;
68250;SDS011;55066;51.560;4.642;2022-07-29T01:18:34;3.23;;;1.80;;
68250;SDS011;55066;51.560;4.642;2022-07-29T01:29:18;3.83;;;1.77;;
68250;SDS011;55066;51.560;4.642;2022-07-29T01:32:01;6.83;;;2.03;;
68250;SDS011;55066;51.560;4.642;2022-07-29T01:34:34;4.53;;;2.00;;
68250;SDS011;55066;51.560;4.642;2022-07-29T01:37:22;4.28;;;2.00;;
68250;SDS011;55066;51.560;4.642;2022-07-29T01:39:52;3.38;;;1.70;;
68250;SDS011;55066;51.560;4.642;2022-07-29T01:42:34;6.97;;;2.30;;
68250;SDS011;55066;51.560;4.642;2022-07-29T01:45:08;4.00;;;2.23;;
68250;SDS011;55066;51.560;4.642;2022-07-29T01:47:40;4.75;;;1.85;;
68250;SDS011;55066;51.560;4.642;2022-07-29T01:50:10;5.20;;;1.90;;
68250;SDS011;55066;51.560;4.642;2022-07-29T01:52:38;5.68;;;2.10;;
68250;SDS011;55066;51.560;4.642;2022-07-29T01:55:12;3.83;;;1.95;;
68250;SDS011;55066;51.560;4.642;2022-07-29T01:57:40;5.47;;;1.93;;
68250;SDS011;55066;51.560;4.642;2022-07-29T02:00:09;4.85;;;2.33;;
68250;SDS011;55066;51.560;4.642;2022-07-29T02:02:41;4.63;;;2.05;;
68250;SDS011;55066;51.560;4.642;2022-07-29T02:05:09;4.93;;;2.38;;
68250;SDS011;55066;51.560;4.642;2022-07-29T02:07:37;3.40;;;2.00;;
68250;SDS011;55066;51.560;4.642;2022-07-29T02:10:05;4.33;;;2.00;;
68250;SDS011;55066;51.560;4.642;2022-07-29T02:12:32;3.70;;;1.83;;
68250;SDS011;55066;51.560;4.642;2022-07-29T02:15:01;5.00;;;2.35;;
68250;SDS011;55066;51.560;4.642;2022-07-29T02:17:33;7.68;;;2.20;;
68250;SDS011;55066;51.560;4.642;2022-07-29T02:20:03;3.25;;;1.80;;
68250;SDS011;55066;51.560;4.642;2022-07-29T02:22:30;5.33;;;2.03;;
68250;SDS011;55066;51.560;4.642;2022-07-29T02:24:58;5.65;;;2.08;;
68250;SDS011;55066;51.560;4.642;2022-07-29T02:27:25;3.25;;;1.80;;
68250;SDS011;55066;51.560;4.642;2022-07-29T02:29:53;4.50;;;2.17;;
68250;SDS011;55066;51.560;4.642;2022-07-29T02:32:19;4.88;;;2.00;;
68250;SDS011;55066;51.560;4.642;2022-07-29T02:34:47;5.10;;;2.33;;
68250;SDS011;55066;51.560;4.642;2022-07-29T02:37:14;7.57;;;2.33;;
68250;SDS011;55066;51.560;4.642;2022-07-29T02:39:42;3.80;;;1.77;;
68250;SDS011;55066;51.560;4.642;2022-07-29T02:42:10;4.68;;;1.98;;
68250;SDS011;55066;51.560;4.642;2022-07-29T02:44:38;4.20;;;1.95;;
68250;SDS011;55066;51.560;4.642;2022-07-29T02:47:23;5.27;;;1.97;;
68250;SDS011;55066;51.560;4.642;2022-07-29T02:50:58;4.00;;;2.10;;
68250;SDS011;55066;51.560;4.642;2022-07-29T02:52:58;7.87;;;2.23;;
68250;SDS011;55066;51.560;4.642;2022-07-29T02:55:51;3.60;;;1.80;;
68250;SDS011;55066;51.560;4.642;2022-07-29T02:58:29;9.02;;;1.90;;
68250;SDS011;55066;51.560;4.642;2022-07-29T03:00:58;3.85;;;2.13;;
68250;SDS011;55066;51.560;4.642;2022-07-29T03:03:28;6.13;;;2.08;;
68250;SDS011;55066;51.560;4.642;2022-07-29T03:05:57;7.43;;;2.07;;
68250;SDS011;55066;51.560;4.642;2022-07-29T03:08:24;4.03;;;2.10;;
68250;SDS011;55066;51.560;4.642;2022-07-29T03:10:52;3.80;;;2.15;;
68250;SDS011;55066;51.560;4.642;2022-07-29T03:13:18;5.22;;;2.03;;
68250;SDS011;55066;51.560;4.642;2022-07-29T03:15:44;4.82;;;2.20;;
68250;SDS011;55066;51.560;4.642;2022-07-29T03:18:10;4.63;;;2.03;;
68250;SDS011;55066;51.560;4.642;2022-07-29T03:20:37;5.18;;;2.05;;
68250;SDS011;55066;51.560;4.642;2022-07-29T03:23:03;4.63;;;2.15;;
68250;SDS011;55066;51.560;4.642;2022-07-29T03:25:29;5.72;;;3.00;;
68250;SDS011;55066;51.560;4.642;2022-07-29T03:27:55;5.60;;;3.33;;
68250;SDS011;55066;51.560;4.642;2022-07-29T03:30:21;5.57;;;2.40;;
68250;SDS011;55066;51.560;4.642;2022-07-29T03:32:47;5.70;;;2.40;;
68250;SDS011;55066;51.560;4.642;2022-07-29T03:35:13;5.60;;;2.10;;
68250;SDS011;55066;51.560;4.642;2022-07-29T03:37:39;3.80;;;2.07;;
68250;SDS011;55066;51.560;4.642;2022-07-29T03:40:05;5.67;;;2.23;;
68250;SDS011;55066;51.560;4.642;2022-07-29T03:42:33;4.20;;;2.20;;
68250;SDS011;55066;51.560;4.642;2022-07-29T03:45:02;5.00;;;2.03;;
68250;SDS011;55066;51.560;4.642;2022-07-29T03:47:30;3.30;;;1.95;;
68250;SDS011;55066;51.560;4.642;2022-07-29T03:50:02;4.18;;;2.15;;
68250;SDS011;55066;51.560;4.642;2022-07-29T03:52:31;4.87;;;2.00;;
68250;SDS011;55066;51.560;4.642;2022-07-29T03:54:56;4.00;;;2.28;;
68250;SDS011;55066;51.560;4.642;2022-07-29T03:57:23;5.30;;;2.20;;
68250;SDS011;55066;51.560;4.642;2022-07-29T03:59:51;5.18;;;2.05;;
68250;SDS011;55066;51.560;4.642;2022-07-29T04:02:17;4.43;;;2.13;;
68250;SDS011;55066;51.560;4.642;2022-07-29T04:04:42;4.80;;;1.97;;
68250;SDS011;55066;51.560;4.642;2022-07-29T04:07:11;4.90;;;2.30;;
68250;SDS011;55066;51.560;4.642;2022-07-29T04:09:37;5.18;;;2.30;;
68250;SDS011;55066;51.560;4.642;2022-07-29T04:12:03;4.50;;;2.10;;
68250;SDS011;55066;51.560;4.642;2022-07-29T04:14:29;3.30;;;2.00;;
68250;SDS011;55066;51.560;4.642;2022-07-29T04:16:55;4.60;;;2.10;;
68250;SDS011;55066;51.560;4.642;2022-07-29T04:19:20;6.10;;;2.30;;
68250;SDS011;55066;51.560;4.642;2022-07-29T04:21:46;5.80;;;2.30;;
68250;SDS011;55066;51.560;4.642;2022-07-29T04:24:11;5.95;;;2.20;;
68250;SDS011;55066;51.560;4.642;2022-07-29T04:26:37;3.37;;;2.07;;
68250;SDS011;55066;51.560;4.642;2022-07-29T04:29:03;4.10;;;2.20;;
68250;SDS011;55066;51.560;4.642;2022-07-29T04:31:28;5.30;;;2.38;;
68250;SDS011;55066;51.560;4.642;2022-07-29T04:33:54;5.40;;;2.40;;
68250;SDS011;55066;51.560;4.642;2022-07-29T04:36:19;6.53;;;2.60;;
68250;SDS011;55066;51.560;4.642;2022-07-29T04:38:44;5.57;;;2.50;;
68250;SDS011;55066;51.560;4.642;2022-07-29T04:41:10;6.77;;;2.40;;
68250;SDS011;55066;51.560;4.642;2022-07-29T04:43:35;4.67;;;2.10;;
68250;SDS011;55066;51.560;4.642;2022-07-29T04:46:01;6.47;;;2.58;;
68250;SDS011;55066;51.560;4.642;2022-07-29T04:48:28;4.13;;;1.98;;
68250;SDS011;55066;51.560;4.642;2022-07-29T04:50:53;4.60;;;2.30;;
68250;SDS011;55066;51.560;4.642;2022-07-29T04:53:19;4.53;;;2.43;;
68250;SDS011;55066;51.560;4.642;2022-07-29T04:55:44;6.18;;;2.60;;
68250;SDS011;55066;51.560;4.642;2022-07-29T04:58:10;11.47;;;2.10;;
68250;SDS011;55066;51.560;4.642;2022-07-29T05:00:36;5.80;;;2.60;;
68250;SDS011;55066;51.560;4.642;2022-07-29T05:03:01;6.73;;;2.70;;
68250;SDS011;55066;51.560;4.642;2022-07-29T05:05:27;6.87;;;2.37;;
68250;SDS011;55066;51.560;4.642;2022-07-29T05:07:52;4.13;;;2.10;;
68250;SDS011;55066;51.560;4.642;2022-07-29T05:10:18;4.87;;;2.40;;
68250;SDS011;55066;51.560;4.642;2022-07-29T05:12:43;8.70;;;2.60;;
68250;SDS011;55066;51.560;4.642;2022-07-29T05:15:09;5.27;;;2.40;;
68250;SDS011;55066;51.560;4.642;2022-07-29T05:17:34;5.68;;;2.63;;
68250;SDS011;55066;51.560;4.642;2022-07-29T05:20:00;4.10;;;2.43;;
68250;SDS011;55066;51.560;4.642;2022-07-29T05:22:25;5.03;;;2.70;;
68250;SDS011;55066;51.560;4.642;2022-07-29T05:24:51;6.83;;;2.80;;
68250;SDS011;55066;51.560;4.642;2022-07-29T05:27:16;5.50;;;2.63;;
68250;SDS011;55066;51.560;4.642;2022-07-29T05:29:41;6.20;;;2.43;;
68250;SDS011;55066;51.560;4.642;2022-07-29T05:32:07;4.90;;;2.53;;
68250;SDS011;55066;51.560;4.642;2022-07-29T05:34:32;5.90;;;2.50;;
68250;SDS011;55066;51.560;4.642;2022-07-29T05:36:58;4.03;;;2.13;;
68250;SDS011;55066;51.560;4.642;2022-07-29T05:39:23;5.80;;;2.33;;
68250;SDS011;55066;51.560;4.642;2022-07-29T05:41:49;5.90;;;2.40;;
68250;SDS011;55066;51.560;4.642;2022-07-29T05:44:14;4.77;;;2.40;;
68250;SDS011;55066;51.560;4.642;2022-07-29T05:46:40;6.10;;;2.50;;
68250;SDS011;55066;51.560;4.642;2022-07-29T05:49:05;4.10;;;2.23;;
68250;SDS011;55066;51.560;4.642;2022-07-29T05:51:34;6.47;;;2.60;;
68250;SDS011;55066;51.560;4.642;2022-07-29T05:54:00;5.87;;;2.80;;
68250;SDS011;55066;51.560;4.642;2022-07-29T05:56:25;6.10;;;3.10;;
68250;SDS011;55066;51.560;4.642;2022-07-29T05:58:51;5.63;;;2.77;;
68250;SDS011;55066;51.560;4.642;2022-07-29T06:01:17;6.45;;;2.92;;
68250;SDS011;55066;51.560;4.642;2022-07-29T06:03:43;6.67;;;3.10;;
68250;SDS011;55066;51.560;4.642;2022-07-29T06:06:08;5.32;;;2.80;;
68250;SDS011;55066;51.560;4.642;2022-07-29T06:08:34;5.80;;;3.00;;
68250;SDS011;55066;51.560;4.642;2022-07-29T06:11:01;4.65;;;2.90;;
68250;SDS011;55066;51.560;4.642;2022-07-29T06:13:28;5.90;;;2.80;;
68250;SDS011;55066;51.560;4.642;2022-07-29T06:15:53;6.00;;;3.50;;
68250;SDS011;55066;51.560;4.642;2022-07-29T06:18:19;5.50;;;3.10;;
68250;SDS011;55066;51.560;4.642;2022-07-29T06:20:45;6.10;;;3.20;;
68250;SDS011;55066;51.560;4.642;2022-07-29T06:23:11;6.57;;;3.13;;
68250;SDS011;55066;51.560;4.642;2022-07-29T06:25:36;6.27;;;3.20;;
68250;SDS011;55066;51.560;4.642;2022-07-29T06:28:05;7.15;;;3.35;;
68250;SDS011;55066;51.560;4.642;2022-07-29T06:30:30;6.30;;;3.00;;
68250;SDS011;55066;51.560;4.642;2022-07-29T06:32:56;5.47;;;3.17;;
68250;SDS011;55066;51.560;4.642;2022-07-29T06:35:21;5.72;;;3.00;;
68250;SDS011;55066;51.560;4.642;2022-07-29T06:37:46;7.90;;;3.00;;
68250;SDS011;55066;51.560;4.642;2022-07-29T06:40:12;5.37;;;3.50;;
68250;SDS011;55066;51.560;4.642;2022-07-29T06:42:59;6.85;;;3.42;;
68250;SDS011;55066;51.560;4.642;2022-07-29T06:45:24;9.67;;;3.30;;
68250;SDS011;55066;51.560;4.642;2022-07-29T06:47:50;8.10;;;3.50;;
68250;SDS011;55066;51.560;4.642;2022-07-29T06:50:15;6.07;;;3.13;;
68250;SDS011;55066;51.560;4.642;2022-07-29T06:52:41;8.25;;;3.10;;
68250;SDS011;55066;51.560;4.642;2022-07-29T06:55:07;7.70;;;3.37;;
68250;SDS011;55066;51.560;4.642;2022-07-29T06:57:33;6.20;;;3.47;;
68250;SDS011;55066;51.560;4.642;2022-07-29T06:59:58;7.87;;;3.30;;
68250;SDS011;55066;51.560;4.642;2022-07-29T07:02:24;6.15;;;2.90;;
68250;SDS011;55066;51.560;4.642;2022-07-29T07:04:49;7.23;;;3.37;;
68250;SDS011;55066;51.560;4.642;2022-07-29T07:07:15;7.73;;;2.90;;
68250;SDS011;55066;51.560;4.642;2022-07-29T07:09:40;6.30;;;3.00;;
68250;SDS011;55066;51.560;4.642;2022-07-29T07:12:06;8.60;;;3.10;;
68250;SDS011;55066;51.560;4.642;2022-07-29T07:14:31;6.57;;;3.10;;
68250;SDS011;55066;51.560;4.642;2022-07-29T07:16:57;7.63;;;2.87;;
68250;SDS011;55066;51.560;4.642;2022-07-29T07:19:22;10.63;;;3.00;;
68250;SDS011;55066;51.560;4.642;2022-07-29T07:21:47;5.47;;;3.10;;
68250;SDS011;55066;51.560;4.642;2022-07-29T07:24:13;6.97;;;3.17;;
68250;SDS011;55066;51.560;4.642;2022-07-29T07:26:38;6.33;;;3.00;;
68250;SDS011;55066;51.560;4.642;2022-07-29T07:29:05;6.63;;;3.08;;
68250;SDS011;55066;51.560;4.642;2022-07-29T07:31:30;8.87;;;2.90;;
68250;SDS011;55066;51.560;4.642;2022-07-29T07:33:56;7.13;;;3.17;;
68250;SDS011;55066;51.560;4.642;2022-07-29T07:36:22;8.83;;;3.30;;
68250;SDS011;55066;51.560;4.642;2022-07-29T07:38:48;7.90;;;3.33;;
68250;SDS011;55066;51.560;4.642;2022-07-29T07:41:14;7.93;;;3.10;;
68250;SDS011;55066;51.560;4.642;2022-07-29T07:43:39;5.90;;;2.93;;
68250;SDS011;55066;51.560;4.642;2022-07-29T07:46:04;8.03;;;3.30;;
68250;SDS011;55066;51.560;4.642;2022-07-29T07:48:30;6.27;;;3.07;;
68250;SDS011;55066;51.560;4.642;2022-07-29T07:50:55;9.15;;;3.40;;
68250;SDS011;55066;51.560;4.642;2022-07-29T07:53:21;7.40;;;3.50;;
68250;SDS011;55066;51.560;4.642;2022-07-29T07:55:46;5.83;;;3.13;;
68250;SDS011;55066;51.560;4.642;2022-07-29T07:58:12;8.55;;;3.10;;
68250;SDS011;55066;51.560;4.642;2022-07-29T08:00:37;9.13;;;3.20;;
68250;SDS011;55066;51.560;4.642;2022-07-29T08:03:03;10.20;;;3.10;;
68250;SDS011;55066;51.560;4.642;2022-07-29T08:05:29;7.15;;;2.88;;
68250;SDS011;55066;51.560;4.642;2022-07-29T08:07:54;6.60;;;3.13;;
68250;SDS011;55066;51.560;4.642;2022-07-29T08:10:19;8.33;;;3.40;;
68250;SDS011;55066;51.560;4.642;2022-07-29T08:13:07;9.00;;;3.20;;
68250;SDS011;55066;51.560;4.642;2022-07-29T08:15:34;8.02;;;2.95;;
68250;SDS011;55066;51.560;4.642;2022-07-29T08:18:00;6.22;;;3.10;;
68250;SDS011;55066;51.560;4.642;2022-07-29T08:20:25;6.73;;;3.23;;
68250;SDS011;55066;51.560;4.642;2022-07-29T08:22:51;8.27;;;3.33;;
68250;SDS011;55066;51.560;4.642;2022-07-29T08:25:17;6.60;;;3.03;;
68250;SDS011;55066;51.560;4.642;2022-07-29T08:27:45;6.45;;;3.38;;
68250;SDS011;55066;51.560;4.642;2022-07-29T08:30:13;6.88;;;3.55;;
68250;SDS011;55066;51.560;4.642;2022-07-29T08:32:39;5.23;;;3.23;;
68250;SDS011;55066;51.560;4.642;2022-07-29T08:35:04;9.25;;;3.90;;
68250;SDS011;55066;51.560;4.642;2022-07-29T08:37:30;8.37;;;3.50;;
68250;SDS011;55066;51.560;4.642;2022-07-29T08:39:56;8.53;;;3.47;;
68250;SDS011;55066;51.560;4.642;2022-07-29T08:42:21;6.78;;;3.30;;
68250;SDS011;55066;51.560;4.642;2022-07-29T08:44:47;7.57;;;4.20;;
68250;SDS011;55066;51.560;4.642;2022-07-29T08:47:16;7.15;;;3.65;;
68250;SDS011;55066;51.560;4.642;2022-07-29T08:49:42;6.90;;;3.50;;
68250;SDS011;55066;51.560;4.642;2022-07-29T08:52:10;8.73;;;4.10;;
68250;SDS011;55066;51.560;4.642;2022-07-29T08:54:36;6.93;;;3.92;;
68250;SDS011;55066;51.560;4.642;2022-07-29T08:57:04;6.40;;;3.42;;
68250;SDS011;55066;51.560;4.642;2022-07-29T08:59:30;6.33;;;3.60;;
68250;SDS011;55066;51.560;4.642;2022-07-29T09:01:59;11.23;;;3.72;;
68250;SDS011;55066;51.560;4.642;2022-07-29T09:04:29;6.57;;;3.13;;
68250;SDS011;55066;51.560;4.642;2022-07-29T09:07:00;7.10;;;3.13;;
68250;SDS011;55066;51.560;4.642;2022-07-29T09:09:29;8.27;;;3.30;;
68250;SDS011;55066;51.560;4.642;2022-07-29T09:11:55;6.00;;;3.58;;
68250;SDS011;55066;51.560;4.642;2022-07-29T09:14:21;7.50;;;3.03;;
68250;SDS011;55066;51.560;4.642;2022-07-29T09:16:47;5.38;;;3.03;;
68250;SDS011;55066;51.560;4.642;2022-07-29T09:19:20;10.95;;;3.22;;
68250;SDS011;55066;51.560;4.642;2022-07-29T09:21:51;6.77;;;3.00;;
68250;SDS011;55066;51.560;4.642;2022-07-29T09:24:22;5.13;;;2.97;;
68250;SDS011;55066;51.560;4.642;2022-07-29T09:26:49;4.85;;;2.92;;
68250;SDS011;55066;51.560;4.642;2022-07-29T09:29:16;6.80;;;3.30;;
68250;SDS011;55066;51.560;4.642;2022-07-29T09:31:43;5.03;;;2.83;;
68250;SDS011;55066;51.560;4.642;2022-07-29T09:34:14;7.93;;;2.63;;
68250;SDS011;55066;51.560;4.642;2022-07-29T09:36:45;5.43;;;2.60;;
68250;SDS011;55066;51.560;4.642;2022-07-29T09:39:12;4.60;;;2.57;;
68250;SDS011;55066;51.560;4.642;2022-07-29T09:41:46;5.55;;;2.42;;
68250;SDS011;55066;51.560;4.642;2022-07-29T09:44:17;5.93;;;3.10;;
68250;SDS011;55066;51.560;4.642;2022-07-29T09:46:56;8.30;;;2.33;;
68250;SDS011;55066;51.560;4.642;2022-07-29T09:49:35;5.90;;;2.40;;
68250;SDS011;55066;51.560;4.642;2022-07-29T09:52:15;5.50;;;2.17;;
68250;SDS011;55066;51.560;4.642;2022-07-29T09:54:41;4.33;;;2.20;;
68250;SDS011;55066;51.560;4.642;2022-07-29T09:57:20;7.38;;;2.10;;
68250;SDS011;55066;51.560;4.642;2022-07-29T10:00:04;5.40;;;2.70;;
68250;SDS011;55066;51.560;4.642;2022-07-29T10:02:39;5.72;;;2.10;;
68250;SDS011;55066;51.560;4.642;2022-07-29T10:05:15;4.50;;;2.20;;
68250;SDS011;55066;51.560;4.642;2022-07-29T10:07:44;5.43;;;2.13;;
68250;SDS011;55066;51.560;4.642;2022-07-29T10:15:18;5.95;;;2.30;;
68250;SDS011;55066;51.560;4.642;2022-07-29T10:17:47;5.07;;;2.10;;
68250;SDS011;55066;51.560;4.642;2022-07-29T10:20:13;4.95;;;2.38;;
68250;SDS011;55066;51.560;4.642;2022-07-29T10:22:40;5.90;;;2.40;;
68250;SDS011;55066;51.560;4.642;2022-07-29T10:25:05;4.85;;;2.00;;
68250;SDS011;55066;51.560;4.642;2022-07-29T10:27:32;5.32;;;2.20;;
68250;SDS011;55066;51.560;4.642;2022-07-29T10:30:00;4.20;;;2.05;;
68250;SDS011;55066;51.560;4.642;2022-07-29T10:37:58;6.63;;;2.10;;
68250;SDS011;55066;51.560;4.642;2022-07-29T10:40:47;7.05;;;2.20;;
68250;SDS011;55066;51.560;4.642;2022-07-29T10:43:43;5.65;;;1.92;;
68250;SDS011;55066;51.560;4.642;2022-07-29T10:46:11;3.97;;;2.10;;
68250;SDS011;55066;51.560;4.642;2022-07-29T10:52:03;5.78;;;2.20;;
68250;SDS011;55066;51.560;4.642;2022-07-29T11:04:59;5.10;;;2.17;;
68250;SDS011;55066;51.560;4.642;2022-07-29T11:07:26;3.58;;;1.65;;
68250;SDS011;55066;51.560;4.642;2022-07-29T11:15:07;5.70;;;2.30;;
68250;SDS011;55066;51.560;4.642;2022-07-29T11:20:31;5.15;;;2.03;;
68250;SDS011;55066;51.560;4.642;2022-07-29T11:23:01;8.60;;;2.30;;
68250;SDS011;55066;51.560;4.642;2022-07-29T11:25:42;3.10;;;1.90;;
68250;SDS011;55066;51.560;4.642;2022-07-29T11:28:15;4.63;;;1.97;;
68250;SDS011;55066;51.560;4.642;2022-07-29T11:30:47;5.25;;;2.22;;
68250;SDS011;55066;51.560;4.642;2022-07-29T11:33:26;6.57;;;2.38;;
68250;SDS011;55066;51.560;4.642;2022-07-29T11:36:11;6.18;;;2.55;;
68250;SDS011;55066;51.560;4.642;2022-07-29T11:38:38;5.15;;;2.10;;
68250;SDS011;55066;51.560;4.642;2022-07-29T11:41:23;5.87;;;2.50;;
68250;SDS011;55066;51.560;4.642;2022-07-29T11:43:53;6.88;;;2.20;;
68250;SDS011;55066;51.560;4.642;2022-07-29T11:49:21;3.73;;;2.13;;
68250;SDS011;55066;51.560;4.642;2022-07-29T11:51:52;6.57;;;2.20;;
68250;SDS011;55066;51.560;4.642;2022-07-29T11:54:25;3.55;;;1.90;;
68250;SDS011;55066;51.560;4.642;2022-07-29T11:56:56;5.60;;;2.45;;
68250;SDS011;55066;51.560;4.642;2022-07-29T11:59:22;6.47;;;2.33;;
68250;SDS011;55066;51.560;4.642;2022-07-29T12:01:53;6.33;;;2.60;;
68250;SDS011;55066;51.560;4.642;2022-07-29T12:04:22;5.07;;;2.95;;
68250;SDS011;55066;51.560;4.642;2022-07-29T12:06:55;6.15;;;3.35;;
68250;SDS011;55066;51.560;4.642;2022-07-29T12:09:21;5.07;;;2.88;;
68250;SDS011;55066;51.560;4.642;2022-07-29T12:11:48;5.93;;;2.42;;
68250;SDS011;55066;51.560;4.642;2022-07-29T12:14:31;5.77;;;2.50;;
68250;SDS011;55066;51.560;4.642;2022-07-29T12:16:58;4.32;;;2.45;;
68250;SDS011;55066;51.560;4.642;2022-07-29T12:19:25;5.00;;;2.90;;
68250;SDS011;55066;51.560;4.642;2022-07-29T12:21:53;4.07;;;2.50;;
68250;SDS011;55066;51.560;4.642;2022-07-29T12:24:20;5.45;;;3.03;;
68250;SDS011;55066;51.560;4.642;2022-07-29T12:26:52;7.03;;;3.00;;
68250;SDS011;55066;51.560;4.642;2022-07-29T12:29:22;7.20;;;3.00;;
68250;SDS011;55066;51.560;4.642;2022-07-29T12:31:51;6.18;;;3.17;;
68250;SDS011;55066;51.560;4.642;2022-07-29T12:34:21;6.35;;;3.00;;
68250;SDS011;55066;51.560;4.642;2022-07-29T12:36:48;4.63;;;2.58;;
68250;SDS011;55066;51.560;4.642;2022-07-29T12:39:15;5.97;;;2.80;;
68250;SDS011;55066;51.560;4.642;2022-07-29T12:41:42;9.18;;;3.00;;
68250;SDS011;55066;51.560;4.642;2022-07-29T12:44:08;6.32;;;2.72;;
68250;SDS011;55066;51.560;4.642;2022-07-29T12:46:33;7.03;;;2.60;;
68250;SDS011;55066;51.560;4.642;2022-07-29T12:48:59;6.53;;;2.80;;
68250;SDS011;55066;51.560;4.642;2022-07-29T12:51:28;10.00;;;2.67;;
68250;SDS011;55066;51.560;4.642;2022-07-29T12:56:30;4.40;;;2.38;;
68250;SDS011;55066;51.560;4.642;2022-07-29T12:58:56;7.20;;;2.47;;
68250;SDS011;55066;51.560;4.642;2022-07-29T13:01:22;4.07;;;2.20;;
68250;SDS011;55066;51.560;4.642;2022-07-29T13:06:28;9.03;;;2.70;;
68250;SDS011;55066;51.560;4.642;2022-07-29T13:14:02;5.20;;;2.83;;
68250;SDS011;55066;51.560;4.642;2022-07-29T13:16:28;7.00;;;2.70;;
68250;SDS011;55066;51.560;4.642;2022-07-29T13:21:56;6.33;;;2.27;;
68250;SDS011;55066;51.560;4.642;2022-07-29T13:24:22;4.90;;;2.40;;
68250;SDS011;55066;51.560;4.642;2022-07-29T13:26:47;6.63;;;2.70;;
68250;SDS011;55066;51.560;4.642;2022-07-29T13:29:13;4.07;;;2.03;;
68250;SDS011;55066;51.560;4.642;2022-07-29T13:31:38;3.90;;;2.30;;
68250;SDS011;55066;51.560;4.642;2022-07-29T13:34:03;6.53;;;2.53;;
68250;SDS011;55066;51.560;4.642;2022-07-29T13:36:29;5.32;;;2.80;;
68250;SDS011;55066;51.560;4.642;2022-07-29T13:38:54;7.93;;;2.60;;
68250;SDS011;55066;51.560;4.642;2022-07-29T13:41:20;5.77;;;2.57;;
68250;SDS011;55066;51.560;4.642;2022-07-29T13:43:45;6.17;;;3.30;;
68250;SDS011;55066;51.560;4.642;2022-07-29T13:46:12;5.43;;;3.03;;
68250;SDS011;55066;51.560;4.642;2022-07-29T13:48:37;5.03;;;2.20;;
68250;SDS011;55066;51.560;4.642;2022-07-29T13:51:02;6.20;;;2.93;;
68250;SDS011;55066;51.560;4.642;2022-07-29T13:53:28;4.80;;;3.07;;
68250;SDS011;55066;51.560;4.642;2022-07-29T13:55:53;5.43;;;2.90;;
68250;SDS011;55066;51.560;4.642;2022-07-29T13:58:19;10.35;;;3.35;;
68250;SDS011;55066;51.560;4.642;2022-07-29T14:00:45;5.60;;;3.10;;
68250;SDS011;55066;51.560;4.642;2022-07-29T14:03:11;4.40;;;2.60;;
68250;SDS011;55066;51.560;4.642;2022-07-29T14:05:37;5.67;;;2.90;;
68250;SDS011;55066;51.560;4.642;2022-07-29T14:08:02;6.10;;;2.80;;
68250;SDS011;55066;51.560;4.642;2022-07-29T14:10:28;5.78;;;3.00;;
68250;SDS011;55066;51.560;4.642;2022-07-29T14:12:55;9.10;;;2.73;;
68250;SDS011;55066;51.560;4.642;2022-07-29T14:15:21;7.28;;;2.97;;
68250;SDS011;55066;51.560;4.642;2022-07-29T14:17:47;5.93;;;3.15;;
68250;SDS011;55066;51.560;4.642;2022-07-29T14:20:13;5.50;;;3.10;;
68250;SDS011;55066;51.560;4.642;2022-07-29T14:22:40;5.45;;;2.88;;
68250;SDS011;55066;51.560;4.642;2022-07-29T14:25:07;4.43;;;3.08;;
68250;SDS011;55066;51.560;4.642;2022-07-29T14:27:33;6.17;;;3.20;;
68250;SDS011;55066;51.560;4.642;2022-07-29T14:29:58;8.50;;;3.28;;
68250;SDS011;55066;51.560;4.642;2022-07-29T14:32:23;5.73;;;3.20;;
68250;SDS011;55066;51.560;4.642;2022-07-29T14:34:49;5.90;;;3.57;;
68250;SDS011;55066;51.560;4.642;2022-07-29T14:37:14;6.43;;;3.40;;
68250;SDS011;55066;51.560;4.642;2022-07-29T14:39:40;9.30;;;3.67;;
68250;SDS011;55066;51.560;4.642;2022-07-29T14:42:07;4.43;;;3.10;;
68250;SDS011;55066;51.560;4.642;2022-07-29T14:44:33;8.63;;;3.37;;
68250;SDS011;55066;51.560;4.642;2022-07-29T14:46:58;7.72;;;3.50;;
68250;SDS011;55066;51.560;4.642;2022-07-29T14:49:25;6.37;;;3.07;;
68250;SDS011;55066;51.560;4.642;2022-07-29T14:51:50;6.95;;;3.03;;
68250;SDS011;55066;51.560;4.642;2022-07-29T14:54:16;5.93;;;3.57;;
68250;SDS011;55066;51.560;4.642;2022-07-29T14:56:42;5.65;;;3.00;;
68250;SDS011;55066;51.560;4.642;2022-07-29T14:59:07;6.03;;;2.80;;
68250;SDS011;55066;51.560;4.642;2022-07-29T15:01:33;10.60;;;2.95;;
68250;SDS011;55066;51.560;4.642;2022-07-29T15:03:58;6.10;;;4.13;;
68250;SDS011;55066;51.560;4.642;2022-07-29T15:06:24;5.68;;;3.20;;
68250;SDS011;55066;51.560;4.642;2022-07-29T15:08:50;5.50;;;3.07;;
68250;SDS011;55066;51.560;4.642;2022-07-29T15:11:15;7.13;;;3.07;;
68250;SDS011;55066;51.560;4.642;2022-07-29T15:13:40;5.50;;;3.30;;
68250;SDS011;55066;51.560;4.642;2022-07-29T15:16:06;7.05;;;2.80;;
68250;SDS011;55066;51.560;4.642;2022-07-29T15:18:32;5.27;;;2.80;;
68250;SDS011;55066;51.560;4.642;2022-07-29T15:20:58;4.50;;;2.60;;
68250;SDS011;55066;51.560;4.642;2022-07-29T15:23:25;7.57;;;3.07;;
68250;SDS011;55066;51.560;4.642;2022-07-29T15:25:50;5.87;;;3.00;;
68250;SDS011;55066;51.560;4.642;2022-07-29T15:28:16;6.13;;;2.80;;
68250;SDS011;55066;51.560;4.642;2022-07-29T15:30:41;6.77;;;2.80;;
68250;SDS011;55066;51.560;4.642;2022-07-29T15:33:08;5.77;;;2.90;;
68250;SDS011;55066;51.560;4.642;2022-07-29T15:35:37;4.70;;;2.88;;
68250;SDS011;55066;51.560;4.642;2022-07-29T15:38:02;5.50;;;2.78;;
68250;SDS011;55066;51.560;4.642;2022-07-29T15:40:28;7.00;;;2.63;;
68250;SDS011;55066;51.560;4.642;2022-07-29T15:42:56;5.00;;;2.72;;
68250;SDS011;55066;51.560;4.642;2022-07-29T15:45:25;5.95;;;2.60;;
68250;SDS011;55066;51.560;4.642;2022-07-29T15:47:51;5.63;;;2.63;;